sensor_id;sensor_type;location;lat;lon;timestamp;P1;durP1;ratioP1;P2;durP2;ratioP2
20830;SDS011;10576;53.556;9.868;2022-12-29T00:01:34;4.20;;;3.80;;
20830;SDS011;10576;53.556;9.868;2022-12-29T00:04:00;4.40;;;3.90;;
20830;SDS011;10576;53.556;9.868;2022-12-29T00:06:26;4.65;;;4.22;;
20830;SDS011;10576;53.556;9.868;2022-12-29T00:08:53;4.43;;;4.07;;
20830;SDS011;10576;53.556;9.868;2022-12-29T00:11:23;4.40;;;4.00;;
20830;SDS011;10576;53.556;9.868;2022-12-29T00:13:50;4.35;;;3.95;;
20830;SDS011;10576;53.556;9.868;2022-12-29T00:16:35;5.75;;;4.50;;
20830;SDS011;10576;53.556;9.868;2022-12-29T00:19:02;4.67;;;4.23;;
20830;SDS011;10576;53.556;9.868;2022-12-29T00:21:28;5.50;;;4.20;;
20830;SDS011;10576;53.556;9.868;2022-12-29T00:24:14;4.40;;;3.97;;
20830;SDS011;10576;53.556;9.868;2022-12-29T00:29:47;4.68;;;4.28;;
20830;SDS011;10576;53.556;9.868;2022-12-29T00:32:32;4.97;;;4.47;;
20830;SDS011;10576;53.556;9.868;2022-12-29T00:35:23;4.38;;;4.07;;
20830;SDS011;10576;53.556;9.868;2022-12-29T00:37:50;4.35;;;4.05;;
20830;SDS011;10576;53.556;9.868;2022-12-29T00:40:35;4.88;;;4.38;;
20830;SDS011;10576;53.556;9.868;2022-12-29T00:43:19;5.22;;;4.75;;
20830;SDS011;10576;53.556;9.868;2022-12-29T00:46:04;4.97;;;4.50;;
20830;SDS011;10576;53.556;9.868;2022-12-29T00:48:29;5.35;;;4.63;;
20830;SDS011;10576;53.556;9.868;2022-12-29T00:51:14;4.68;;;4.25;;
20830;SDS011;10576;53.556;9.868;2022-12-29T00:53:40;4.80;;;4.38;;
20830;SDS011;10576;53.556;9.868;2022-12-29T00:56:05;4.77;;;4.37;;
20830;SDS011;10576;53.556;9.868;2022-12-29T00:58:31;4.75;;;4.00;;
20830;SDS011;10576;53.556;9.868;2022-12-29T01:01:01;4.72;;;4.13;;
20830;SDS011;10576;53.556;9.868;2022-12-29T01:03:27;4.63;;;3.90;;
20830;SDS011;10576;53.556;9.868;2022-12-29T01:05:53;4.60;;;3.92;;
20830;SDS011;10576;53.556;9.868;2022-12-29T01:08:19;4.40;;;4.00;;
20830;SDS011;10576;53.556;9.868;2022-12-29T01:10:44;4.57;;;4.23;;
20830;SDS011;10576;53.556;9.868;2022-12-29T01:13:10;4.50;;;4.10;;
20830;SDS011;10576;53.556;9.868;2022-12-29T01:15:36;4.20;;;3.80;;
20830;SDS011;10576;53.556;9.868;2022-12-29T01:18:01;4.50;;;3.93;;
20830;SDS011;10576;53.556;9.868;2022-12-29T01:20:27;4.38;;;3.97;;
20830;SDS011;10576;53.556;9.868;2022-12-29T01:22:53;4.63;;;3.70;;
20830;SDS011;10576;53.556;9.868;2022-12-29T01:25:19;4.13;;;3.83;;
20830;SDS011;10576;53.556;9.868;2022-12-29T01:27:45;4.07;;;3.67;;
20830;SDS011;10576;53.556;9.868;2022-12-29T01:30:10;4.30;;;3.83;;
20830;SDS011;10576;53.556;9.868;2022-12-29T01:32:36;4.38;;;4.00;;
20830;SDS011;10576;53.556;9.868;2022-12-29T01:35:02;4.37;;;3.97;;
20830;SDS011;10576;53.556;9.868;2022-12-29T01:37:28;4.32;;;3.92;;
20830;SDS011;10576;53.556;9.868;2022-12-29T01:39:54;4.55;;;4.15;;
20830;SDS011;10576;53.556;9.868;2022-12-29T01:42:22;4.22;;;3.83;;
20830;SDS011;10576;53.556;9.868;2022-12-29T01:44:52;4.72;;;4.32;;
20830;SDS011;10576;53.556;9.868;2022-12-29T01:47:26;4.45;;;4.15;;
20830;SDS011;10576;53.556;9.868;2022-12-29T01:50:08;4.85;;;4.45;;
20830;SDS011;10576;53.556;9.868;2022-12-29T01:52:38;4.85;;;4.45;;
20830;SDS011;10576;53.556;9.868;2022-12-29T01:55:08;4.70;;;4.30;;
20830;SDS011;10576;53.556;9.868;2022-12-29T01:57:37;5.07;;;4.55;;
20830;SDS011;10576;53.556;9.868;2022-12-29T02:00:07;5.40;;;4.90;;
20830;SDS011;10576;53.556;9.868;2022-12-29T02:02:36;5.43;;;4.93;;
20830;SDS011;10576;53.556;9.868;2022-12-29T02:05:07;5.10;;;4.70;;
20830;SDS011;10576;53.556;9.868;2022-12-29T02:07:39;5.10;;;4.60;;
20830;SDS011;10576;53.556;9.868;2022-12-29T02:10:05;5.32;;;4.82;;
20830;SDS011;10576;53.556;9.868;2022-12-29T02:12:32;5.20;;;4.80;;
20830;SDS011;10576;53.556;9.868;2022-12-29T02:14:58;7.13;;;5.20;;
20830;SDS011;10576;53.556;9.868;2022-12-29T02:23:28;6.50;;;4.90;;
20830;SDS011;10576;53.556;9.868;2022-12-29T02:28:52;5.03;;;4.63;;
20830;SDS011;10576;53.556;9.868;2022-12-29T02:33:53;4.47;;;4.18;;
20830;SDS011;10576;53.556;9.868;2022-12-29T02:36:49;4.40;;;4.10;;
20830;SDS011;10576;53.556;9.868;2022-12-29T02:39:27;4.45;;;4.05;;
20830;SDS011;10576;53.556;9.868;2022-12-29T02:42:02;4.75;;;4.30;;
20830;SDS011;10576;53.556;9.868;2022-12-29T02:44:52;4.30;;;4.00;;
20830;SDS011;10576;53.556;9.868;2022-12-29T02:47:35;4.45;;;4.05;;
20830;SDS011;10576;53.556;9.868;2022-12-29T02:50:08;4.55;;;4.15;;
20830;SDS011;10576;53.556;9.868;2022-12-29T02:52:57;4.30;;;3.90;;
20830;SDS011;10576;53.556;9.868;2022-12-29T02:55:24;4.85;;;4.13;;
20830;SDS011;10576;53.556;9.868;2022-12-29T02:58:02;4.40;;;4.00;;
20830;SDS011;10576;53.556;9.868;2022-12-29T03:00:32;4.57;;;4.18;;
20830;SDS011;10576;53.556;9.868;2022-12-29T03:11:14;5.22;;;3.78;;
20830;SDS011;10576;53.556;9.868;2022-12-29T03:16:50;4.00;;;3.70;;
20830;SDS011;10576;53.556;9.868;2022-12-29T03:19:30;3.60;;;3.30;;
20830;SDS011;10576;53.556;9.868;2022-12-29T03:22:01;4.00;;;3.60;;
20830;SDS011;10576;53.556;9.868;2022-12-29T03:24:51;4.22;;;3.50;;
20830;SDS011;10576;53.556;9.868;2022-12-29T03:27:25;3.75;;;3.45;;
20830;SDS011;10576;53.556;9.868;2022-12-29T03:29:54;3.78;;;3.47;;
20830;SDS011;10576;53.556;9.868;2022-12-29T03:32:24;4.22;;;3.67;;
20830;SDS011;10576;53.556;9.868;2022-12-29T03:34:57;3.88;;;3.50;;
20830;SDS011;10576;53.556;9.868;2022-12-29T03:37:26;3.40;;;3.10;;
20830;SDS011;10576;53.556;9.868;2022-12-29T03:39:54;3.63;;;3.38;;
20830;SDS011;10576;53.556;9.868;2022-12-29T03:42:20;3.40;;;3.10;;
20830;SDS011;10576;53.556;9.868;2022-12-29T03:44:48;3.10;;;2.90;;
20830;SDS011;10576;53.556;9.868;2022-12-29T03:47:19;3.80;;;3.50;;
20830;SDS011;10576;53.556;9.868;2022-12-29T03:49:45;3.33;;;3.13;;
20830;SDS011;10576;53.556;9.868;2022-12-29T03:52:11;3.95;;;3.58;;
20830;SDS011;10576;53.556;9.868;2022-12-29T03:54:37;3.60;;;3.30;;
20830;SDS011;10576;53.556;9.868;2022-12-29T03:57:03;3.70;;;3.40;;
20830;SDS011;10576;53.556;9.868;2022-12-29T03:59:29;3.60;;;3.20;;
20830;SDS011;10576;53.556;9.868;2022-12-29T04:01:54;3.33;;;3.03;;
20830;SDS011;10576;53.556;9.868;2022-12-29T04:04:20;3.05;;;2.85;;
20830;SDS011;10576;53.556;9.868;2022-12-29T04:06:46;3.13;;;2.93;;
20830;SDS011;10576;53.556;9.868;2022-12-29T04:09:12;3.20;;;2.90;;
20830;SDS011;10576;53.556;9.868;2022-12-29T04:11:37;3.00;;;2.80;;
20830;SDS011;10576;53.556;9.868;2022-12-29T04:14:03;3.50;;;2.90;;
20830;SDS011;10576;53.556;9.868;2022-12-29T04:16:29;3.40;;;3.00;;
20830;SDS011;10576;53.556;9.868;2022-12-29T04:18:55;2.70;;;2.50;;
20830;SDS011;10576;53.556;9.868;2022-12-29T04:21:21;3.43;;;2.53;;
20830;SDS011;10576;53.556;9.868;2022-12-29T04:23:46;2.70;;;2.50;;
20830;SDS011;10576;53.556;9.868;2022-12-29T04:26:12;2.70;;;2.50;;
20830;SDS011;10576;53.556;9.868;2022-12-29T04:28:38;2.30;;;2.20;;
20830;SDS011;10576;53.556;9.868;2022-12-29T04:31:04;2.00;;;1.90;;
20830;SDS011;10576;53.556;9.868;2022-12-29T04:33:31;2.05;;;1.95;;
20830;SDS011;10576;53.556;9.868;2022-12-29T04:35:57;2.28;;;2.08;;
20830;SDS011;10576;53.556;9.868;2022-12-29T04:38:23;2.90;;;2.00;;
20830;SDS011;10576;53.556;9.868;2022-12-29T04:40:50;1.93;;;1.83;;
20830;SDS011;10576;53.556;9.868;2022-12-29T04:43:16;1.90;;;1.80;;
20830;SDS011;10576;53.556;9.868;2022-12-29T04:45:44;1.88;;;1.77;;
20830;SDS011;10576;53.556;9.868;2022-12-29T04:48:10;2.10;;;1.90;;
20830;SDS011;10576;53.556;9.868;2022-12-29T04:50:36;2.10;;;1.90;;
20830;SDS011;10576;53.556;9.868;2022-12-29T04:53:02;1.77;;;1.67;;
20830;SDS011;10576;53.556;9.868;2022-12-29T04:55:28;1.80;;;1.70;;
20830;SDS011;10576;53.556;9.868;2022-12-29T04:57:54;2.08;;;1.60;;
20830;SDS011;10576;53.556;9.868;2022-12-29T05:00:20;1.75;;;1.65;;
20830;SDS011;10576;53.556;9.868;2022-12-29T05:02:46;1.80;;;1.70;;
20830;SDS011;10576;53.556;9.868;2022-12-29T05:05:12;1.70;;;1.60;;
20830;SDS011;10576;53.556;9.868;2022-12-29T05:07:38;1.90;;;1.80;;
20830;SDS011;10576;53.556;9.868;2022-12-29T05:10:04;1.80;;;1.70;;
20830;SDS011;10576;53.556;9.868;2022-12-29T05:12:31;1.73;;;1.63;;
20830;SDS011;10576;53.556;9.868;2022-12-29T05:14:57;2.80;;;1.90;;
20830;SDS011;10576;53.556;9.868;2022-12-29T05:17:22;1.98;;;1.88;;
20830;SDS011;10576;53.556;9.868;2022-12-29T05:19:48;2.20;;;2.10;;
20830;SDS011;10576;53.556;9.868;2022-12-29T05:22:14;2.10;;;2.00;;
20830;SDS011;10576;53.556;9.868;2022-12-29T05:24:40;2.20;;;2.10;;
20830;SDS011;10576;53.556;9.868;2022-12-29T05:27:06;2.30;;;2.20;;
20830;SDS011;10576;53.556;9.868;2022-12-29T05:29:32;2.35;;;2.20;;
20830;SDS011;10576;53.556;9.868;2022-12-29T05:31:57;2.80;;;2.60;;
20830;SDS011;10576;53.556;9.868;2022-12-29T05:34:23;2.92;;;2.60;;
20830;SDS011;10576;53.556;9.868;2022-12-29T05:36:49;2.77;;;2.57;;
20830;SDS011;10576;53.556;9.868;2022-12-29T05:39:15;2.95;;;2.75;;
20830;SDS011;10576;53.556;9.868;2022-12-29T05:41:41;2.63;;;2.42;;
20830;SDS011;10576;53.556;9.868;2022-12-29T05:44:07;2.53;;;2.33;;
20830;SDS011;10576;53.556;9.868;2022-12-29T05:46:33;2.55;;;2.35;;
20830;SDS011;10576;53.556;9.868;2022-12-29T05:48:59;2.50;;;2.30;;
20830;SDS011;10576;53.556;9.868;2022-12-29T05:51:25;2.55;;;2.33;;
20830;SDS011;10576;53.556;9.868;2022-12-29T05:53:51;2.45;;;2.25;;
20830;SDS011;10576;53.556;9.868;2022-12-29T05:56:17;3.13;;;2.63;;
20830;SDS011;10576;53.556;9.868;2022-12-29T05:58:43;5.50;;;2.47;;
20830;SDS011;10576;53.556;9.868;2022-12-29T06:01:09;2.60;;;2.38;;
20830;SDS011;10576;53.556;9.868;2022-12-29T06:03:35;2.22;;;2.03;;
20830;SDS011;10576;53.556;9.868;2022-12-29T06:06:00;2.00;;;1.90;;
20830;SDS011;10576;53.556;9.868;2022-12-29T06:08:26;3.05;;;1.88;;
20830;SDS011;10576;53.556;9.868;2022-12-29T06:10:52;1.90;;;1.80;;
20830;SDS011;10576;53.556;9.868;2022-12-29T06:13:18;2.10;;;1.83;;
20830;SDS011;10576;53.556;9.868;2022-12-29T06:15:43;1.97;;;1.87;;
20830;SDS011;10576;53.556;9.868;2022-12-29T06:18:09;3.22;;;2.08;;
20830;SDS011;10576;53.556;9.868;2022-12-29T06:20:35;1.95;;;1.85;;
20830;SDS011;10576;53.556;9.868;2022-12-29T06:23:01;3.10;;;2.00;;
20830;SDS011;10576;53.556;9.868;2022-12-29T06:25:27;2.00;;;1.90;;
20830;SDS011;10576;53.556;9.868;2022-12-29T06:27:55;2.20;;;2.00;;
20830;SDS011;10576;53.556;9.868;2022-12-29T06:30:21;2.10;;;1.90;;
20830;SDS011;10576;53.556;9.868;2022-12-29T06:32:47;2.20;;;2.00;;
20830;SDS011;10576;53.556;9.868;2022-12-29T06:35:13;2.10;;;2.00;;
20830;SDS011;10576;53.556;9.868;2022-12-29T06:37:39;2.27;;;2.17;;
20830;SDS011;10576;53.556;9.868;2022-12-29T06:40:05;1.98;;;1.88;;
20830;SDS011;10576;53.556;9.868;2022-12-29T06:42:31;1.93;;;1.83;;
20830;SDS011;10576;53.556;9.868;2022-12-29T06:44:57;1.88;;;1.77;;
20830;SDS011;10576;53.556;9.868;2022-12-29T06:47:25;2.00;;;1.90;;
20830;SDS011;10576;53.556;9.868;2022-12-29T06:49:51;2.10;;;1.90;;
20830;SDS011;10576;53.556;9.868;2022-12-29T06:52:17;1.92;;;1.83;;
20830;SDS011;10576;53.556;9.868;2022-12-29T06:54:43;2.35;;;1.77;;
20830;SDS011;10576;53.556;9.868;2022-12-29T06:57:09;1.80;;;1.70;;
20830;SDS011;10576;53.556;9.868;2022-12-29T06:59:35;1.90;;;1.80;;
20830;SDS011;10576;53.556;9.868;2022-12-29T07:02:01;1.95;;;1.70;;
20830;SDS011;10576;53.556;9.868;2022-12-29T07:04:27;1.80;;;1.70;;
20830;SDS011;10576;53.556;9.868;2022-12-29T07:06:54;2.30;;;1.70;;
20830;SDS011;10576;53.556;9.868;2022-12-29T07:09:20;1.67;;;1.58;;
20830;SDS011;10576;53.556;9.868;2022-12-29T07:11:45;2.08;;;1.67;;
20830;SDS011;10576;53.556;9.868;2022-12-29T07:14:11;1.80;;;1.70;;
20830;SDS011;10576;53.556;9.868;2022-12-29T07:16:37;1.70;;;1.60;;
20830;SDS011;10576;53.556;9.868;2022-12-29T07:19:04;1.90;;;1.80;;
20830;SDS011;10576;53.556;9.868;2022-12-29T07:21:30;1.80;;;1.70;;
20830;SDS011;10576;53.556;9.868;2022-12-29T07:23:56;1.88;;;1.77;;
20830;SDS011;10576;53.556;9.868;2022-12-29T07:26:22;2.30;;;2.03;;
20830;SDS011;10576;53.556;9.868;2022-12-29T07:28:48;2.50;;;2.10;;
20830;SDS011;10576;53.556;9.868;2022-12-29T07:31:14;2.23;;;2.00;;
20830;SDS011;10576;53.556;9.868;2022-12-29T07:33:41;2.30;;;2.10;;
20830;SDS011;10576;53.556;9.868;2022-12-29T07:36:08;2.50;;;2.30;;
20830;SDS011;10576;53.556;9.868;2022-12-29T07:38:34;3.40;;;2.40;;
20830;SDS011;10576;53.556;9.868;2022-12-29T07:41:00;2.88;;;2.28;;
20830;SDS011;10576;53.556;9.868;2022-12-29T07:43:26;4.15;;;2.20;;
20830;SDS011;10576;53.556;9.868;2022-12-29T07:45:52;2.60;;;2.40;;
20830;SDS011;10576;53.556;9.868;2022-12-29T07:48:18;2.33;;;2.13;;
20830;SDS011;10576;53.556;9.868;2022-12-29T07:50:44;2.40;;;2.20;;
20830;SDS011;10576;53.556;9.868;2022-12-29T07:53:10;2.40;;;2.13;;
20830;SDS011;10576;53.556;9.868;2022-12-29T07:55:36;3.25;;;2.15;;
20830;SDS011;10576;53.556;9.868;2022-12-29T07:58:02;2.45;;;2.00;;
20830;SDS011;10576;53.556;9.868;2022-12-29T08:00:28;2.03;;;1.83;;
20830;SDS011;10576;53.556;9.868;2022-12-29T08:02:54;2.60;;;1.90;;
20830;SDS011;10576;53.556;9.868;2022-12-29T08:05:20;2.53;;;1.60;;
20830;SDS011;10576;53.556;9.868;2022-12-29T08:07:46;1.50;;;1.40;;
20830;SDS011;10576;53.556;9.868;2022-12-29T08:10:12;2.00;;;1.52;;
20830;SDS011;10576;53.556;9.868;2022-12-29T08:12:38;1.40;;;1.30;;
20830;SDS011;10576;53.556;9.868;2022-12-29T08:15:05;1.40;;;1.35;;
20830;SDS011;10576;53.556;9.868;2022-12-29T08:17:31;1.90;;;1.30;;
20830;SDS011;10576;53.556;9.868;2022-12-29T08:19:57;1.65;;;1.50;;
20830;SDS011;10576;53.556;9.868;2022-12-29T08:22:23;1.50;;;1.40;;
20830;SDS011;10576;53.556;9.868;2022-12-29T08:24:49;1.63;;;1.52;;
20830;SDS011;10576;53.556;9.868;2022-12-29T08:27:15;2.20;;;1.60;;
20830;SDS011;10576;53.556;9.868;2022-12-29T08:29:41;1.65;;;1.55;;
20830;SDS011;10576;53.556;9.868;2022-12-29T08:32:07;2.03;;;1.80;;
20830;SDS011;10576;53.556;9.868;2022-12-29T08:34:33;3.45;;;1.85;;
20830;SDS011;10576;53.556;9.868;2022-12-29T08:36:59;2.10;;;1.90;;
20830;SDS011;10576;53.556;9.868;2022-12-29T08:39:25;2.00;;;1.90;;
20830;SDS011;10576;53.556;9.868;2022-12-29T08:41:51;2.50;;;1.90;;
20830;SDS011;10576;53.556;9.868;2022-12-29T08:44:16;3.72;;;1.77;;
20830;SDS011;10576;53.556;9.868;2022-12-29T08:46:42;2.30;;;1.60;;
20830;SDS011;10576;53.556;9.868;2022-12-29T08:49:08;2.25;;;1.80;;
20830;SDS011;10576;53.556;9.868;2022-12-29T08:51:34;2.65;;;1.50;;
20830;SDS011;10576;53.556;9.868;2022-12-29T08:54:00;2.70;;;1.42;;
20830;SDS011;10576;53.556;9.868;2022-12-29T08:56:26;2.20;;;1.33;;
20830;SDS011;10576;53.556;9.868;2022-12-29T08:58:53;2.42;;;1.25;;
20830;SDS011;10576;53.556;9.868;2022-12-29T09:01:19;3.00;;;1.40;;
20830;SDS011;10576;53.556;9.868;2022-12-29T09:03:45;3.85;;;1.40;;
20830;SDS011;10576;53.556;9.868;2022-12-29T09:06:11;2.50;;;1.33;;
20830;SDS011;10576;53.556;9.868;2022-12-29T09:08:37;2.45;;;1.30;;
20830;SDS011;10576;53.556;9.868;2022-12-29T09:11:11;1.85;;;1.23;;
20830;SDS011;10576;53.556;9.868;2022-12-29T09:13:40;2.15;;;1.17;;
20830;SDS011;10576;53.556;9.868;2022-12-29T09:16:06;3.95;;;1.13;;
20830;SDS011;10576;53.556;9.868;2022-12-29T09:18:32;1.50;;;1.10;;
20830;SDS011;10576;53.556;9.868;2022-12-29T09:21:02;1.63;;;1.10;;
20830;SDS011;10576;53.556;9.868;2022-12-29T09:23:28;1.10;;;1.00;;
20830;SDS011;10576;53.556;9.868;2022-12-29T09:25:55;2.80;;;1.20;;
20830;SDS011;10576;53.556;9.868;2022-12-29T09:28:21;2.00;;;1.08;;
20830;SDS011;10576;53.556;9.868;2022-12-29T09:30:48;2.95;;;1.10;;
20830;SDS011;10576;53.556;9.868;2022-12-29T09:33:14;4.00;;;1.23;;
20830;SDS011;10576;53.556;9.868;2022-12-29T09:35:44;3.40;;;1.10;;
20830;SDS011;10576;53.556;9.868;2022-12-29T09:38:10;2.55;;;1.00;;
20830;SDS011;10576;53.556;9.868;2022-12-29T09:40:37;2.85;;;1.20;;
20830;SDS011;10576;53.556;9.868;2022-12-29T09:45:47;4.32;;;1.17;;
20830;SDS011;10576;53.556;9.868;2022-12-29T09:48:16;4.50;;;1.30;;
20830;SDS011;10576;53.556;9.868;2022-12-29T09:50:44;3.22;;;1.23;;
20830;SDS011;10576;53.556;9.868;2022-12-29T09:53:16;2.40;;;1.20;;
20830;SDS011;10576;53.556;9.868;2022-12-29T09:55:50;4.50;;;1.42;;
20830;SDS011;10576;53.556;9.868;2022-12-29T09:58:29;4.07;;;1.30;;
20830;SDS011;10576;53.556;9.868;2022-12-29T10:01:07;6.47;;;1.40;;
20830;SDS011;10576;53.556;9.868;2022-12-29T10:03:48;5.85;;;1.30;;
20830;SDS011;10576;53.556;9.868;2022-12-29T10:06:17;3.03;;;1.30;;
20830;SDS011;10576;53.556;9.868;2022-12-29T10:16:33;2.70;;;1.30;;
20830;SDS011;10576;53.556;9.868;2022-12-29T10:21:39;3.70;;;1.30;;
20830;SDS011;10576;53.556;9.868;2022-12-29T10:24:43;7.47;;;1.60;;
20830;SDS011;10576;53.556;9.868;2022-12-29T10:27:12;7.28;;;1.58;;
20830;SDS011;10576;53.556;9.868;2022-12-29T10:32:22;4.78;;;1.50;;
20830;SDS011;10576;53.556;9.868;2022-12-29T10:34:51;4.10;;;1.42;;
20830;SDS011;10576;53.556;9.868;2022-12-29T10:37:29;5.78;;;1.58;;
20830;SDS011;10576;53.556;9.868;2022-12-29T10:39:57;5.10;;;1.77;;
20830;SDS011;10576;53.556;9.868;2022-12-29T10:42:28;4.32;;;1.67;;
20830;SDS011;10576;53.556;9.868;2022-12-29T10:45:01;5.80;;;1.97;;
20830;SDS011;10576;53.556;9.868;2022-12-29T10:47:32;4.03;;;1.40;;
20830;SDS011;10576;53.556;9.868;2022-12-29T10:50:01;5.20;;;1.70;;
20830;SDS011;10576;53.556;9.868;2022-12-29T10:52:28;7.25;;;1.85;;
20830;SDS011;10576;53.556;9.868;2022-12-29T10:57:36;4.38;;;1.42;;
20830;SDS011;10576;53.556;9.868;2022-12-29T11:00:12;5.83;;;1.30;;
20830;SDS011;10576;53.556;9.868;2022-12-29T11:07:58;4.25;;;1.50;;
20830;SDS011;10576;53.556;9.868;2022-12-29T11:10:34;4.15;;;1.33;;
20830;SDS011;10576;53.556;9.868;2022-12-29T11:16:03;3.97;;;1.30;;
20830;SDS011;10576;53.556;9.868;2022-12-29T11:18:37;8.45;;;1.98;;
20830;SDS011;10576;53.556;9.868;2022-12-29T11:21:46;4.78;;;1.60;;
20830;SDS011;10576;53.556;9.868;2022-12-29T11:23:57;4.88;;;1.40;;
20830;SDS011;10576;53.556;9.868;2022-12-29T11:26:30;4.78;;;1.20;;
20830;SDS011;10576;53.556;9.868;2022-12-29T11:31:43;2.60;;;1.20;;
20830;SDS011;10576;53.556;9.868;2022-12-29T11:34:16;4.60;;;1.20;;
20830;SDS011;10576;53.556;9.868;2022-12-29T11:37:00;4.40;;;1.30;;
20830;SDS011;10576;53.556;9.868;2022-12-29T11:39:36;2.78;;;1.13;;
20830;SDS011;10576;53.556;9.868;2022-12-29T11:42:13;2.20;;;0.98;;
20830;SDS011;10576;53.556;9.868;2022-12-29T11:44:43;4.05;;;1.08;;
20830;SDS011;10576;53.556;9.868;2022-12-29T11:47:10;2.63;;;1.00;;
20830;SDS011;10576;53.556;9.868;2022-12-29T11:49:48;2.78;;;1.00;;
20830;SDS011;10576;53.556;9.868;2022-12-29T11:52:20;3.05;;;1.00;;
20830;SDS011;10576;53.556;9.868;2022-12-29T11:54:50;2.17;;;0.80;;
20830;SDS011;10576;53.556;9.868;2022-12-29T11:57:16;2.58;;;0.90;;
20830;SDS011;10576;53.556;9.868;2022-12-29T11:59:44;2.85;;;0.90;;
20830;SDS011;10576;53.556;9.868;2022-12-29T12:04:51;2.27;;;1.00;;
20830;SDS011;10576;53.556;9.868;2022-12-29T12:07:59;2.83;;;1.10;;
20830;SDS011;10576;53.556;9.868;2022-12-29T12:10:26;6.60;;;1.20;;
20830;SDS011;10576;53.556;9.868;2022-12-29T12:12:59;3.35;;;1.20;;
20830;SDS011;10576;53.556;9.868;2022-12-29T12:15:34;3.45;;;1.20;;
20830;SDS011;10576;53.556;9.868;2022-12-29T12:21:00;4.95;;;1.40;;
20830;SDS011;10576;53.556;9.868;2022-12-29T12:23:32;3.15;;;1.38;;
20830;SDS011;10576;53.556;9.868;2022-12-29T12:26:21;4.68;;;1.40;;
20830;SDS011;10576;53.556;9.868;2022-12-29T12:28:55;4.55;;;1.50;;
20830;SDS011;10576;53.556;9.868;2022-12-29T12:34:18;6.32;;;1.50;;
20830;SDS011;10576;53.556;9.868;2022-12-29T12:44:43;3.08;;;1.42;;
20830;SDS011;10576;53.556;9.868;2022-12-29T12:52:49;6.10;;;1.58;;
20830;SDS011;10576;53.556;9.868;2022-12-29T13:09:01;4.53;;;1.57;;
20830;SDS011;10576;53.556;9.868;2022-12-29T13:11:46;5.15;;;1.58;;
20830;SDS011;10576;53.556;9.868;2022-12-29T13:22:50;4.20;;;1.70;;
20830;SDS011;10576;53.556;9.868;2022-12-29T13:28:03;6.43;;;1.60;;
20830;SDS011;10576;53.556;9.868;2022-12-29T13:36:24;4.18;;;1.50;;
20830;SDS011;10576;53.556;9.868;2022-12-29T13:41:39;5.60;;;1.50;;
20830;SDS011;10576;53.556;9.868;2022-12-29T13:44:17;5.67;;;1.80;;
20830;SDS011;10576;53.556;9.868;2022-12-29T13:46:48;4.22;;;1.50;;
20830;SDS011;10576;53.556;9.868;2022-12-29T13:49:18;5.80;;;1.83;;
20830;SDS011;10576;53.556;9.868;2022-12-29T13:51:52;4.82;;;1.30;;
20830;SDS011;10576;53.556;9.868;2022-12-29T14:05:05;5.95;;;1.73;;
20830;SDS011;10576;53.556;9.868;2022-12-29T14:07:56;3.25;;;1.10;;
20830;SDS011;10576;53.556;9.868;2022-12-29T14:10:34;5.40;;;1.15;;
20830;SDS011;10576;53.556;9.868;2022-12-29T14:15:28;4.47;;;1.15;;
20830;SDS011;10576;53.556;9.868;2022-12-29T14:18:11;3.38;;;1.00;;
20830;SDS011;10576;53.556;9.868;2022-12-29T14:23:36;3.60;;;1.02;;
20830;SDS011;10576;53.556;9.868;2022-12-29T14:28:31;5.45;;;1.58;;
20830;SDS011;10576;53.556;9.868;2022-12-29T14:31:02;3.22;;;1.27;;
20830;SDS011;10576;53.556;9.868;2022-12-29T14:36:35;4.82;;;1.40;;
20830;SDS011;10576;53.556;9.868;2022-12-29T14:39:02;3.17;;;1.20;;
20830;SDS011;10576;53.556;9.868;2022-12-29T14:41:35;7.27;;;1.20;;
20830;SDS011;10576;53.556;9.868;2022-12-29T14:46:46;4.10;;;1.42;;
20830;SDS011;10576;53.556;9.868;2022-12-29T14:49:23;4.47;;;1.38;;
20830;SDS011;10576;53.556;9.868;2022-12-29T14:51:52;5.03;;;1.48;;
20830;SDS011;10576;53.556;9.868;2022-12-29T14:57:08;4.40;;;1.50;;
20830;SDS011;10576;53.556;9.868;2022-12-29T14:59:36;7.30;;;1.48;;
20830;SDS011;10576;53.556;9.868;2022-12-29T15:02:03;5.93;;;1.50;;
20830;SDS011;10576;53.556;9.868;2022-12-29T15:04:38;4.13;;;1.30;;
20830;SDS011;10576;53.556;9.868;2022-12-29T15:07:07;6.65;;;1.80;;
20830;SDS011;10576;53.556;9.868;2022-12-29T15:09:35;5.30;;;1.60;;
20830;SDS011;10576;53.556;9.868;2022-12-29T15:12:13;5.65;;;1.60;;
20830;SDS011;10576;53.556;9.868;2022-12-29T15:14:54;5.40;;;1.40;;
20830;SDS011;10576;53.556;9.868;2022-12-29T15:17:27;4.20;;;1.63;;
20830;SDS011;10576;53.556;9.868;2022-12-29T15:19:53;5.00;;;2.00;;
20830;SDS011;10576;53.556;9.868;2022-12-29T15:22:21;4.90;;;1.60;;
20830;SDS011;10576;53.556;9.868;2022-12-29T15:24:49;3.08;;;1.20;;
20830;SDS011;10576;53.556;9.868;2022-12-29T15:27:19;4.18;;;1.45;;
20830;SDS011;10576;53.556;9.868;2022-12-29T15:29:46;5.05;;;1.50;;
20830;SDS011;10576;53.556;9.868;2022-12-29T15:34:43;5.80;;;1.63;;
20830;SDS011;10576;53.556;9.868;2022-12-29T15:37:16;6.10;;;1.80;;
20830;SDS011;10576;53.556;9.868;2022-12-29T15:39:44;5.13;;;1.67;;
20830;SDS011;10576;53.556;9.868;2022-12-29T15:44:48;4.53;;;2.30;;
20830;SDS011;10576;53.556;9.868;2022-12-29T15:49:41;4.18;;;1.70;;
20830;SDS011;10576;53.556;9.868;2022-12-29T15:52:08;5.38;;;1.80;;
20830;SDS011;10576;53.556;9.868;2022-12-29T15:54:34;4.63;;;1.98;;
20830;SDS011;10576;53.556;9.868;2022-12-29T15:57:01;3.88;;;1.60;;
20830;SDS011;10576;53.556;9.868;2022-12-29T15:59:33;5.93;;;2.10;;
20830;SDS011;10576;53.556;9.868;2022-12-29T16:02:01;6.57;;;1.90;;
20830;SDS011;10576;53.556;9.868;2022-12-29T16:04:28;5.40;;;1.88;;
20830;SDS011;10576;53.556;9.868;2022-12-29T16:07:01;5.30;;;1.83;;
20830;SDS011;10576;53.556;9.868;2022-12-29T16:11:57;8.45;;;2.00;;
20830;SDS011;10576;53.556;9.868;2022-12-29T16:14:39;7.80;;;2.10;;
20830;SDS011;10576;53.556;9.868;2022-12-29T16:17:09;6.20;;;2.63;;
20830;SDS011;10576;53.556;9.868;2022-12-29T16:19:48;6.22;;;3.03;;
20830;SDS011;10576;53.556;9.868;2022-12-29T16:22:38;9.48;;;2.85;;
20830;SDS011;10576;53.556;9.868;2022-12-29T16:25:15;6.97;;;2.50;;
20830;SDS011;10576;53.556;9.868;2022-12-29T16:27:43;6.65;;;2.40;;
20830;SDS011;10576;53.556;9.868;2022-12-29T16:32:48;6.28;;;2.38;;
20830;SDS011;10576;53.556;9.868;2022-12-29T16:37:44;6.93;;;2.20;;
20830;SDS011;10576;53.556;9.868;2022-12-29T16:40:26;8.77;;;2.40;;
20830;SDS011;10576;53.556;9.868;2022-12-29T16:42:55;5.93;;;2.47;;
20830;SDS011;10576;53.556;9.868;2022-12-29T16:50:31;5.07;;;2.10;;
20830;SDS011;10576;53.556;9.868;2022-12-29T16:52:57;6.75;;;2.40;;
20830;SDS011;10576;53.556;9.868;2022-12-29T16:55:24;8.43;;;2.70;;
20830;SDS011;10576;53.556;9.868;2022-12-29T16:57:50;8.27;;;2.55;;
20830;SDS011;10576;53.556;9.868;2022-12-29T17:00:22;6.97;;;2.45;;
20830;SDS011;10576;53.556;9.868;2022-12-29T17:02:50;5.90;;;2.40;;
20830;SDS011;10576;53.556;9.868;2022-12-29T17:05:21;10.45;;;2.95;;
20830;SDS011;10576;53.556;9.868;2022-12-29T17:07:47;8.10;;;2.88;;
20830;SDS011;10576;53.556;9.868;2022-12-29T17:10:13;6.65;;;2.40;;
20830;SDS011;10576;53.556;9.868;2022-12-29T17:12:39;8.35;;;2.28;;
20830;SDS011;10576;53.556;9.868;2022-12-29T17:15:07;5.57;;;2.30;;
20830;SDS011;10576;53.556;9.868;2022-12-29T17:17:49;7.45;;;2.65;;
20830;SDS011;10576;53.556;9.868;2022-12-29T17:20:19;5.00;;;2.40;;
20830;SDS011;10576;53.556;9.868;2022-12-29T17:22:49;7.43;;;2.40;;
20830;SDS011;10576;53.556;9.868;2022-12-29T17:25:19;8.50;;;2.55;;
20830;SDS011;10576;53.556;9.868;2022-12-29T17:27:53;5.28;;;2.45;;
20830;SDS011;10576;53.556;9.868;2022-12-29T17:30:27;7.43;;;2.40;;
20830;SDS011;10576;53.556;9.868;2022-12-29T17:32:56;6.57;;;2.50;;
20830;SDS011;10576;53.556;9.868;2022-12-29T17:35:25;5.90;;;2.20;;
20830;SDS011;10576;53.556;9.868;2022-12-29T17:37:52;10.03;;;2.30;;
20830;SDS011;10576;53.556;9.868;2022-12-29T17:40:19;6.78;;;2.42;;